createdAt,value
2022-12-03T00:01:49.149Z,79.10
2022-12-03T00:04:19.138Z,73.80
2022-12-03T00:06:47.069Z,85.40
2022-12-03T00:09:15.118Z,88.50
2022-12-03T00:11:43.067Z,84.30
2022-12-03T00:14:11.057Z,78.20
2022-12-03T00:16:39.091Z,75.50
2022-12-03T00:19:09.674Z,73.40
2022-12-03T00:21:37.454Z,81.00
2022-12-03T00:24:06.156Z,75.00
2022-12-03T00:26:34.260Z,68.80
2022-12-03T00:29:02.558Z,69.60
2022-12-03T00:31:31.004Z,66.90
2022-12-03T00:34:00.261Z,73.90
2022-12-03T00:36:31.364Z,76.10
2022-12-03T00:38:59.873Z,69.30
2022-12-03T00:41:27.989Z,71.90
2022-12-03T00:43:58.011Z,74.90
2022-12-03T00:46:28.689Z,71.50
2022-12-03T00:51:29.855Z,72.10
2022-12-03T00:53:57.906Z,83.00
2022-12-03T00:56:25.991Z,75.30
2022-12-03T00:58:54.380Z,80.30
2022-12-03T01:01:23.629Z,86.30
2022-12-03T01:03:51.899Z,82.30
2022-12-03T01:06:19.677Z,94.20
2022-12-03T01:08:47.944Z,97.20
2022-12-03T01:11:34.548Z,88.40
2022-12-03T01:14:14.307Z,83.10
2022-12-03T01:16:44.056Z,90.40
2022-12-03T01:19:17.248Z,90.80
2022-12-03T01:21:49.269Z,91.40
2022-12-03T01:24:19.003Z,91.00
2022-12-03T01:26:47.221Z,104.90
2022-12-03T01:29:16.061Z,99.30
2022-12-03T01:32:02.918Z,93.40
2022-12-03T01:34:31.138Z,88.00
2022-12-03T01:37:00.505Z,90.00
2022-12-03T01:39:28.418Z,96.60
2022-12-03T01:41:59.098Z,83.50
2022-12-03T01:44:35.276Z,90.20
2022-12-03T01:47:06.821Z,82.80
2022-12-03T01:50:08.000Z,91.20
2022-12-03T01:52:38.229Z,74.50
2022-12-03T01:55:13.213Z,87.00
2022-12-03T01:57:48.383Z,80.40
2022-12-03T02:00:23.358Z,89.70
2022-12-03T02:03:01.616Z,93.80
2022-12-03T02:05:34.298Z,87.40
2022-12-03T02:08:02.225Z,90.80
2022-12-03T02:10:35.365Z,86.30
2022-12-03T02:15:39.882Z,81.50
2022-12-03T02:18:11.558Z,84.00
2022-12-03T02:20:53.526Z,72.00
2022-12-03T02:23:36.321Z,80.80
2022-12-03T02:26:04.627Z,82.90
2022-12-03T02:28:34.359Z,69.60
2022-12-03T02:31:02.524Z,71.50
2022-12-03T02:33:35.004Z,76.50
2022-12-03T02:36:04.465Z,73.80
2022-12-03T02:38:38.761Z,83.90
2022-12-03T02:41:11.020Z,73.60
2022-12-03T02:43:39.195Z,84.00
2022-12-03T02:46:08.140Z,72.20
2022-12-03T02:48:46.649Z,78.40
2022-12-03T02:51:14.747Z,73.70
2022-12-03T02:53:50.129Z,73.70
2022-12-03T02:56:21.480Z,74.90
2022-12-03T02:58:55.621Z,83.10
2022-12-03T03:01:23.466Z,86.90
2022-12-03T03:03:55.074Z,80.00
2022-12-03T03:06:26.511Z,77.70
2022-12-03T03:08:54.721Z,69.50
2022-12-03T03:11:23.396Z,78.60
2022-12-03T03:13:51.376Z,80.50
2022-12-03T03:16:19.416Z,73.40
2022-12-03T03:18:47.584Z,74.30
2022-12-03T03:21:15.290Z,77.20
2022-12-03T03:23:43.068Z,72.80
2022-12-03T03:26:13.760Z,70.40
2022-12-03T03:28:45.653Z,71.60
2022-12-03T03:31:16.090Z,76.30
2022-12-03T03:33:46.245Z,79.00
2022-12-03T03:36:14.980Z,78.90
2022-12-03T03:38:42.788Z,74.40
2022-12-03T03:41:11.439Z,75.40
2022-12-03T03:43:42.041Z,77.90
2022-12-03T03:46:10.679Z,73.50
2022-12-03T03:48:38.934Z,74.90
2022-12-03T03:51:09.493Z,72.90
2022-12-03T03:53:41.681Z,80.90
2022-12-03T03:56:09.951Z,84.10
2022-12-03T03:58:40.840Z,89.80
2022-12-03T04:01:11.570Z,80.00
2022-12-03T04:03:39.699Z,81.60
2022-12-03T04:06:11.395Z,83.50
2022-12-03T04:08:39.482Z,84.80
2022-12-03T04:11:26.281Z,86.30
2022-12-03T04:13:54.088Z,88.20
2022-12-03T04:16:21.900Z,87.90
2022-12-03T04:18:50.855Z,84.30
2022-12-03T04:21:42.341Z,79.40
2022-12-03T04:24:11.266Z,79.30
2022-12-03T04:26:57.635Z,83.70
2022-12-03T04:29:25.504Z,76.20
2022-12-03T04:32:11.867Z,78.00
2022-12-03T04:34:58.272Z,76.10
2022-12-03T04:37:26.133Z,76.50
2022-12-03T04:39:53.981Z,76.20
2022-12-03T04:42:22.017Z,87.20
2022-12-03T04:44:50.509Z,77.10
2022-12-03T04:47:20.699Z,84.00
2022-12-03T04:49:50.933Z,80.20
2022-12-03T04:52:19.955Z,80.20
2022-12-03T04:54:47.850Z,84.60
2022-12-03T04:57:15.813Z,73.70
2022-12-03T04:59:43.599Z,78.20
2022-12-03T05:02:11.457Z,71.50
2022-12-03T05:04:39.462Z,84.10
2022-12-03T05:07:07.217Z,79.20
2022-12-03T05:09:35.052Z,71.00
2022-12-03T05:12:03.760Z,74.00
2022-12-03T05:14:31.567Z,69.30
2022-12-03T05:16:59.376Z,66.00
2022-12-03T05:19:47.241Z,61.10
2022-12-03T05:22:17.396Z,66.20
2022-12-03T05:24:45.530Z,61.10
2022-12-03T05:27:15.015Z,60.60
2022-12-03T05:29:44.428Z,67.90
2022-12-03T05:32:12.204Z,70.00
2022-12-03T05:34:40.021Z,71.40
2022-12-03T05:37:07.869Z,86.00
2022-12-03T05:39:35.797Z,78.00
2022-12-03T05:42:22.089Z,80.70
2022-12-03T05:44:49.862Z,75.30
2022-12-03T05:47:17.608Z,68.20
2022-12-03T05:49:45.423Z,61.20
2022-12-03T05:52:13.235Z,67.80
2022-12-03T05:54:41.066Z,72.30
2022-12-03T05:57:08.863Z,74.90
2022-12-03T05:59:36.679Z,82.80
2022-12-03T06:02:04.547Z,71.70
2022-12-03T06:04:32.421Z,77.70
2022-12-03T06:07:00.288Z,80.90
2022-12-03T06:09:28.204Z,79.20
2022-12-03T06:11:56.216Z,77.00
2022-12-03T06:14:24.314Z,72.30
2022-12-03T06:16:52.152Z,72.50
2022-12-03T06:19:19.915Z,65.40
2022-12-03T06:21:47.706Z,76.20
2022-12-03T06:24:15.570Z,75.00
2022-12-03T06:26:43.438Z,73.50
2022-12-03T06:29:11.305Z,75.90
2022-12-03T06:31:39.216Z,62.80
2022-12-03T06:34:07.184Z,65.30
2022-12-03T06:36:36.008Z,71.90
2022-12-03T06:39:03.996Z,76.50
2022-12-03T06:41:31.780Z,63.00
2022-12-03T06:44:00.684Z,63.20
2022-12-03T06:46:28.632Z,66.00
2022-12-03T06:48:56.532Z,65.80
2022-12-03T06:51:24.437Z,70.20
2022-12-03T06:53:52.482Z,65.60
2022-12-03T06:56:22.455Z,63.10
2022-12-03T06:58:53.270Z,66.10
2022-12-03T07:01:21.418Z,61.60
2022-12-03T07:03:49.509Z,69.40
2022-12-03T07:06:17.475Z,82.90
2022-12-03T07:08:48.114Z,72.60
2022-12-03T07:11:31.315Z,71.60
2022-12-03T07:14:05.137Z,68.50
2022-12-03T07:16:35.799Z,68.70
2022-12-03T07:19:05.607Z,71.20
2022-12-03T07:21:33.780Z,67.00
2022-12-03T07:24:01.703Z,68.20
2022-12-03T07:26:29.759Z,68.30
2022-12-03T07:28:57.612Z,73.80
2022-12-03T07:31:25.551Z,64.30
2022-12-03T07:33:53.537Z,68.10
2022-12-03T07:36:21.557Z,66.10
2022-12-03T07:38:49.661Z,70.50
2022-12-03T07:41:17.538Z,66.80
2022-12-03T07:43:45.310Z,62.40
2022-12-03T07:46:13.254Z,64.70
2022-12-03T07:48:41.215Z,68.00
2022-12-03T07:51:14.294Z,71.20
2022-12-03T07:53:43.346Z,77.60
2022-12-03T07:56:11.272Z,80.30
2022-12-03T07:58:39.283Z,64.60
2022-12-03T08:01:07.502Z,61.60
2022-12-03T08:03:35.587Z,68.20
2022-12-03T08:06:03.775Z,63.40
2022-12-03T08:08:32.139Z,66.60
2022-12-03T08:11:02.362Z,57.40
2022-12-03T08:13:31.014Z,69.80
2022-12-03T08:16:02.225Z,70.20
2022-12-03T08:18:30.304Z,65.50
2022-12-03T08:20:58.455Z,71.20
2022-12-03T08:23:28.931Z,73.10
2022-12-03T08:26:02.195Z,59.10
2022-12-03T08:28:32.034Z,70.20
2022-12-03T08:31:07.689Z,70.80
2022-12-03T08:33:39.141Z,68.90
2022-12-03T08:36:17.399Z,67.90
2022-12-03T08:38:50.672Z,92.30
2022-12-03T08:41:38.423Z,68.30
2022-12-03T08:44:27.869Z,78.40
2022-12-03T08:47:21.867Z,80.70
2022-12-03T08:50:06.327Z,66.50
2022-12-03T08:52:34.822Z,79.30
2022-12-03T08:55:47.511Z,69.80
2022-12-03T08:58:28.210Z,71.50
2022-12-03T09:01:11.104Z,66.40
2022-12-03T09:06:29.856Z,83.80
2022-12-03T09:09:01.137Z,69.40
2022-12-03T09:11:33.861Z,75.40
2022-12-03T09:14:02.128Z,69.10
2022-12-03T09:16:30.906Z,69.10
2022-12-03T09:18:59.381Z,71.60
2022-12-03T09:21:27.438Z,82.40
2022-12-03T09:23:55.509Z,80.20
2022-12-03T09:26:23.407Z,89.80
2022-12-03T09:28:51.258Z,79.60
2022-12-03T09:31:19.910Z,91.70
2022-12-03T09:33:48.177Z,84.60
2022-12-03T09:36:16.331Z,84.20
2022-12-03T09:38:47.805Z,91.80
2022-12-03T09:41:16.396Z,122.50
2022-12-03T09:44:03.256Z,68.60
2022-12-03T09:46:34.833Z,70.40
2022-12-03T09:49:05.054Z,74.80
2022-12-03T09:51:36.860Z,74.50
2022-12-03T09:54:10.661Z,88.10
2022-12-03T09:56:39.063Z,88.60
2022-12-03T09:59:18.162Z,78.70
2022-12-03T10:01:46.202Z,89.40
2022-12-03T10:04:14.314Z,96.00
2022-12-03T10:06:45.794Z,92.30
2022-12-03T10:09:20.936Z,79.30
2022-12-03T10:11:49.006Z,74.00
2022-12-03T10:14:18.102Z,71.00
2022-12-03T10:16:46.342Z,90.90
2022-12-03T10:19:29.228Z,85.90
2022-12-03T10:21:57.754Z,76.90
2022-12-03T10:24:44.994Z,88.80
2022-12-03T10:27:29.804Z,81.60
2022-12-03T10:30:00.169Z,104.10
2022-12-03T10:32:44.997Z,94.00
2022-12-03T10:43:33.943Z,124.10
2022-12-03T10:46:04.113Z,101.80
2022-12-03T10:48:32.624Z,96.10
2022-12-03T10:51:27.467Z,92.40
2022-12-03T10:53:55.533Z,95.30
2022-12-03T10:56:27.561Z,87.60
2022-12-03T10:58:55.458Z,81.60
2022-12-03T11:01:26.280Z,92.80
2022-12-03T11:04:03.562Z,102.70
2022-12-03T11:06:33.170Z,98.60
2022-12-03T11:09:08.487Z,102.60
2022-12-03T11:11:37.579Z,101.50
2022-12-03T11:14:06.051Z,111.40
2022-12-03T11:16:40.382Z,101.70
2022-12-03T11:19:36.893Z,112.20
2022-12-03T11:22:05.187Z,103.30
2022-12-03T11:24:39.367Z,92.50
2022-12-03T11:27:17.154Z,107.70
2022-12-03T11:29:53.780Z,96.40
2022-12-03T11:32:43.947Z,89.80
2022-12-03T11:35:24.489Z,90.80
2022-12-03T11:37:52.768Z,101.40
2022-12-03T11:40:20.828Z,99.30
2022-12-03T11:42:49.842Z,102.00
2022-12-03T11:45:37.319Z,107.90
2022-12-03T11:48:14.663Z,98.50
2022-12-03T11:50:53.468Z,102.20
2022-12-03T11:53:27.465Z,106.70
2022-12-03T11:56:08.640Z,104.20
2022-12-03T11:58:40.279Z,98.70
2022-12-03T12:01:08.784Z,112.30
2022-12-03T12:03:49.248Z,100.80
2022-12-03T12:06:19.880Z,115.30
2022-12-03T12:08:58.444Z,105.00
2022-12-03T12:11:32.870Z,107.00
2022-12-03T12:14:05.924Z,121.40
2022-12-03T12:16:50.941Z,114.90
2022-12-03T12:19:41.383Z,98.40
2022-12-03T12:22:25.082Z,114.50
2022-12-03T12:25:04.524Z,105.80
2022-12-03T12:27:45.615Z,105.50
2022-12-03T12:30:17.024Z,105.80
2022-12-03T12:33:09.149Z,113.30
2022-12-03T12:35:37.080Z,118.90
2022-12-03T12:38:08.734Z,120.00
2022-12-03T12:40:40.152Z,131.60
2022-12-03T12:43:15.299Z,119.20
2022-12-03T12:45:44.520Z,114.20
2022-12-03T12:48:29.279Z,108.60
2022-12-03T12:51:12.818Z,121.20
2022-12-03T12:53:42.953Z,114.40
2022-12-03T12:56:25.633Z,120.20
2022-12-03T12:58:54.411Z,117.40
2022-12-03T13:01:29.515Z,101.30
2022-12-03T13:03:58.509Z,110.90
2022-12-03T13:06:30.750Z,96.10
2022-12-03T13:09:01.914Z,111.30
2022-12-03T13:11:46.012Z,111.10
2022-12-03T13:14:17.692Z,117.80
2022-12-03T13:16:48.506Z,122.50
2022-12-03T13:19:30.829Z,131.40
2022-12-03T13:22:19.598Z,129.40
2022-12-03T13:24:53.992Z,130.20
2022-12-03T13:27:30.291Z,122.00
2022-12-03T13:30:11.771Z,110.80
2022-12-03T13:32:41.777Z,104.50
2022-12-03T13:35:09.979Z,108.60
2022-12-03T13:37:40.846Z,115.60
2022-12-03T13:40:27.402Z,126.20
2022-12-03T13:42:55.800Z,120.40
2022-12-03T13:45:27.663Z,119.00
2022-12-03T13:48:00.413Z,121.20
2022-12-03T13:50:40.087Z,117.80
2022-12-03T13:53:37.320Z,113.10
2022-12-03T13:56:37.960Z,127.10
2022-12-03T13:59:06.664Z,130.70
2022-12-03T14:01:36.487Z,124.90
2022-12-03T14:04:05.007Z,113.60
2022-12-03T14:06:33.724Z,118.70
2022-12-03T14:09:01.912Z,125.10
2022-12-03T14:11:48.744Z,129.90
2022-12-03T14:14:19.853Z,127.60
2022-12-03T14:16:48.460Z,112.60
2022-12-03T14:19:16.663Z,123.70
2022-12-03T14:21:44.678Z,123.00
2022-12-03T14:24:12.904Z,128.00
2022-12-03T14:26:41.275Z,125.00
2022-12-03T14:29:09.324Z,130.70
2022-12-03T14:31:37.816Z,125.50
2022-12-03T14:34:06.156Z,129.90
2022-12-03T14:36:34.406Z,146.40
2022-12-03T14:39:02.626Z,135.60
2022-12-03T14:41:49.177Z,143.10
2022-12-03T14:44:17.613Z,150.50
2022-12-03T14:46:45.997Z,142.20
2022-12-03T14:49:14.669Z,148.40
2022-12-03T14:51:42.855Z,137.40
2022-12-03T14:54:11.372Z,158.10
2022-12-03T14:56:39.402Z,172.00
2022-12-03T14:59:07.376Z,179.40
2022-12-03T15:01:35.514Z,181.00
2022-12-03T15:04:03.861Z,137.40
2022-12-03T15:06:32.218Z,129.50
2022-12-03T15:09:00.260Z,140.60
2022-12-03T15:11:28.748Z,135.60
2022-12-03T15:13:57.160Z,137.10
2022-12-03T15:16:25.180Z,125.30
2022-12-03T15:18:53.197Z,138.30
2022-12-03T15:21:21.295Z,128.40
2022-12-03T15:23:49.552Z,143.50
2022-12-03T15:26:17.571Z,144.60
2022-12-03T15:28:48.454Z,154.00
2022-12-03T15:31:16.619Z,142.80
2022-12-03T15:33:44.753Z,136.20
2022-12-03T15:36:12.808Z,129.20
2022-12-03T15:38:41.005Z,134.80
2022-12-03T15:41:21.446Z,128.30
2022-12-03T15:43:52.833Z,133.90
2022-12-03T15:46:20.968Z,136.60
2022-12-03T15:48:49.974Z,149.80
2022-12-03T15:51:18.156Z,168.00
2022-12-03T15:53:47.463Z,166.30
2022-12-03T15:56:15.636Z,148.40
2022-12-03T15:58:43.751Z,159.90
2022-12-03T16:01:13.831Z,148.20
2022-12-03T16:03:42.238Z,156.40
2022-12-03T16:06:13.533Z,134.30
2022-12-03T16:08:41.764Z,151.20
2022-12-03T16:11:09.552Z,136.90
2022-12-03T16:13:37.388Z,139.00
2022-12-03T16:16:05.913Z,145.20
2022-12-03T16:18:34.120Z,191.10
2022-12-03T16:21:04.842Z,165.10
2022-12-03T16:23:32.834Z,149.20
2022-12-03T16:26:00.985Z,154.80
2022-12-03T16:28:31.811Z,129.00
2022-12-03T16:30:59.832Z,135.40
2022-12-03T16:33:28.208Z,145.50
2022-12-03T16:35:57.951Z,151.50
2022-12-03T16:38:25.838Z,153.90
2022-12-03T16:40:53.852Z,149.00
2022-12-03T16:43:21.929Z,138.70
2022-12-03T16:46:03.161Z,137.50
2022-12-03T16:48:31.389Z,140.30
2022-12-03T16:50:59.329Z,140.40
2022-12-03T16:53:27.354Z,144.30
2022-12-03T16:55:55.186Z,135.60
2022-12-03T16:58:23.368Z,128.70
2022-12-03T17:00:53.393Z,142.40
2022-12-03T17:03:22.954Z,150.00
2022-12-03T17:05:50.973Z,150.00
2022-12-03T17:08:18.743Z,155.50
2022-12-03T17:10:46.757Z,156.40
2022-12-03T17:13:15.498Z,159.90
2022-12-03T17:15:43.315Z,150.10
2022-12-03T17:18:11.623Z,152.40
2022-12-03T17:20:39.657Z,153.20
2022-12-03T17:23:11.964Z,153.10
2022-12-03T17:25:40.111Z,138.50
2022-12-03T17:28:07.988Z,142.50
2022-12-03T17:30:36.694Z,136.30
2022-12-03T17:33:05.283Z,121.80
2022-12-03T17:35:33.313Z,135.80
2022-12-03T17:38:02.638Z,152.90
2022-12-03T17:40:30.790Z,146.60
2022-12-03T17:42:58.705Z,142.30
2022-12-03T17:45:26.818Z,132.50
2022-12-03T17:47:54.900Z,132.80
2022-12-03T17:50:23.268Z,143.80
2022-12-03T17:52:51.365Z,148.00
2022-12-03T17:55:30.956Z,139.70
2022-12-03T17:58:04.621Z,149.70
2022-12-03T18:00:33.576Z,138.80
2022-12-03T18:03:01.580Z,148.80
2022-12-03T18:05:33.968Z,143.10
2022-12-03T18:08:06.380Z,148.60
2022-12-03T18:10:34.373Z,137.50
2022-12-03T18:13:02.642Z,143.70
2022-12-03T18:15:31.964Z,147.70
2022-12-03T18:18:00.196Z,143.70
2022-12-03T18:20:30.545Z,147.30
2022-12-03T18:23:02.423Z,146.00
2022-12-03T18:25:30.884Z,152.30
2022-12-03T18:28:01.258Z,159.40
2022-12-03T18:30:32.009Z,151.70
2022-12-03T18:33:02.391Z,145.30
2022-12-03T18:35:32.208Z,145.80
2022-12-03T18:38:02.879Z,147.50
2022-12-03T18:40:32.941Z,151.30
2022-12-03T18:43:01.263Z,147.80
2022-12-03T18:45:29.810Z,155.50
2022-12-03T18:47:59.006Z,163.10
2022-12-03T18:50:29.128Z,162.90
2022-12-03T18:52:57.036Z,161.20
2022-12-03T18:55:26.952Z,153.60
2022-12-03T18:57:59.680Z,153.90
2022-12-03T19:00:59.091Z,140.10
2022-12-03T19:04:06.660Z,137.20
2022-12-03T19:06:38.386Z,125.20
2022-12-03T19:09:07.699Z,133.50
2022-12-03T19:11:38.468Z,142.60
2022-12-03T19:14:11.242Z,132.20
2022-12-03T19:16:42.628Z,144.20
2022-12-03T19:19:14.634Z,143.10
2022-12-03T19:21:47.775Z,133.70
2022-12-03T19:24:26.575Z,137.20
2022-12-03T19:26:55.868Z,137.20
2022-12-03T19:29:41.147Z,143.80
2022-12-03T19:32:11.794Z,145.50
2022-12-03T19:35:16.749Z,148.10
2022-12-03T19:37:46.997Z,165.80
2022-12-03T19:40:16.735Z,149.80
2022-12-03T19:42:47.029Z,150.50
2022-12-03T19:45:15.504Z,143.40
2022-12-03T19:47:44.535Z,145.90
2022-12-03T19:50:22.378Z,136.90
2022-12-03T19:52:59.146Z,145.00
2022-12-03T19:55:29.974Z,139.70
2022-12-03T19:58:02.157Z,139.80
2022-12-03T20:00:32.028Z,145.30
2022-12-03T20:03:01.322Z,159.80
2022-12-03T20:05:39.126Z,153.30
2022-12-03T20:08:15.092Z,139.10
2022-12-03T20:10:44.785Z,161.40
2022-12-03T20:13:16.084Z,144.70
2022-12-03T20:15:44.376Z,157.00
2022-12-03T20:18:12.490Z,167.30
2022-12-03T20:20:43.072Z,155.80
2022-12-03T20:23:13.855Z,155.60
2022-12-03T20:25:41.846Z,149.40
2022-12-03T20:28:15.998Z,136.90
2022-12-03T20:30:47.123Z,142.70
2022-12-03T20:33:16.853Z,134.10
2022-12-03T20:35:45.039Z,152.90
2022-12-03T20:38:17.749Z,146.50
2022-12-03T20:40:48.175Z,142.00
2022-12-03T20:43:20.671Z,143.30
2022-12-03T20:46:02.867Z,134.90
2022-12-03T20:48:33.299Z,147.30
2022-12-03T20:51:12.164Z,144.30
2022-12-03T20:53:44.593Z,144.30
2022-12-03T20:56:26.679Z,141.50
2022-12-03T20:58:55.078Z,144.60
2022-12-03T21:01:30.609Z,143.90
2022-12-03T21:04:05.305Z,133.00
2022-12-03T21:06:37.433Z,131.60
2022-12-03T21:09:07.302Z,132.20
2022-12-03T21:11:36.589Z,141.80
2022-12-03T21:14:06.606Z,142.20
2022-12-03T21:17:08.026Z,137.60
2022-12-03T21:19:29.081Z,137.90
2022-12-03T21:21:58.832Z,139.00
2022-12-03T21:24:26.818Z,138.90
2022-12-03T21:26:58.964Z,133.30
2022-12-03T21:29:26.808Z,130.90
2022-12-03T21:31:54.731Z,142.40
2022-12-03T21:34:23.417Z,134.60
2022-12-03T21:36:57.141Z,134.70
2022-12-03T21:39:27.389Z,124.20
2022-12-03T21:42:18.947Z,132.70
2022-12-03T21:44:44.615Z,120.30
2022-12-03T21:47:14.255Z,131.70
2022-12-03T21:49:43.430Z,135.80
2022-12-03T21:52:13.569Z,119.70
2022-12-03T21:54:41.717Z,123.90
2022-12-03T21:57:10.222Z,122.90
2022-12-03T21:59:41.022Z,126.70
2022-12-03T22:02:10.734Z,126.70
2022-12-03T22:04:39.896Z,133.90
2022-12-03T22:07:08.615Z,125.90
2022-12-03T22:09:36.522Z,127.70
2022-12-03T22:12:09.084Z,122.00
2022-12-03T22:14:40.416Z,123.60
2022-12-03T22:17:11.084Z,122.10
2022-12-03T22:19:39.767Z,126.10
2022-12-03T22:22:08.629Z,121.80
2022-12-03T22:24:38.903Z,135.90
2022-12-03T22:27:06.936Z,125.60
2022-12-03T22:29:35.079Z,132.60
2022-12-03T22:32:04.213Z,128.50
2022-12-03T22:34:33.751Z,126.80
2022-12-03T22:37:01.890Z,122.60
2022-12-03T22:39:29.934Z,126.60
2022-12-03T22:41:58.242Z,126.30
2022-12-03T22:44:27.639Z,126.10
2022-12-03T22:46:56.637Z,132.10
2022-12-03T22:49:27.500Z,123.80
2022-12-03T22:51:58.351Z,123.60
2022-12-03T22:54:26.229Z,133.10
2022-12-03T22:56:54.257Z,131.60
2022-12-03T22:59:22.074Z,123.20
2022-12-03T23:01:50.228Z,117.20
2022-12-03T23:04:18.304Z,117.20
2022-12-03T23:06:46.479Z,127.60
2022-12-03T23:09:17.989Z,126.20
2022-12-03T23:11:46.123Z,127.20
2022-12-03T23:14:14.211Z,122.60
2022-12-03T23:16:42.175Z,128.40
2022-12-03T23:19:09.982Z,133.50
2022-12-03T23:21:37.743Z,130.40
2022-12-03T23:24:06.459Z,130.40
2022-12-03T23:26:37.561Z,132.20
2022-12-03T23:29:06.419Z,130.00
2022-12-03T23:31:35.031Z,117.20
2022-12-03T23:34:03.935Z,121.70
2022-12-03T23:36:32.950Z,123.10
2022-12-03T23:39:00.966Z,121.70
2022-12-03T23:41:28.818Z,113.50
2022-12-03T23:43:56.882Z,120.70
2022-12-03T23:46:27.331Z,112.20
2022-12-03T23:48:55.409Z,122.40
2022-12-03T23:51:24.988Z,115.80
2022-12-03T23:53:54.503Z,123.50
2022-12-03T23:56:26.748Z,110.70
2022-12-03T23:58:56.527Z,109.80
